LEJR

Jerez Airport

Jerez de la Forntera, Spain
METAR LEJR 210200Z AUTO 14005KT 050V190 9999 NCD 25/13 Q1014
Observed Flight Rules
Aug-21 @ 02:00 UTC (16 minutes ago) Visual Flight Rules
Wind Visibility Clouds
140° at 5 knots 10,000+ meters
  • Clear skies
Temperatures Readings
Current 25°C / 77°F
Dewpoint 13°C / 55°F
Humidity 47%
Altimeter 29.94" Hg
Pressure 1014 hPa
Elevation 30
METAR LEJR 210200Z AUTO 14005KT 050V190 9999 NCD 25/13 Q1014
Observed Flight Rules
Aug-21 @ 02:00 UTC
(16 minutes ago)
VFR
Wind Visibility
140° at 5 knots 10,000+ meters
Clouds
  • Clear skies
Temperature Dewpoint
25°C / 77°F 13°C / 55°F
Humidity Altimeter Pressure
47% 29.94" Hg 1014 hPa